Time;durP1;ratioP1;P1;durP2;ratioP2;P2;SDS_P1;SDS_P2;PMS_P1;PMS_P2;Temp;Humidity;BMP_temperature;BMP_pressure;BME280_temperature;BME280_humidity;BME280_pressure;Samples;Min_cycle;Max_cycle;Signal;HPM_P1;HPM_P2
2022/03/11 00:02:06;;;;;;;21.37;13.83;;;;;;;;;;5072110;28;20185;-66
2022/03/11 00:04:32;;;;;;;21.03;11.30;;;;;;;;;;5055412;28;20188;-63
2022/03/11 00:06:58;;;;;;;16.93;11.23;;;;;;;;;;5073227;28;20669;-64
2022/03/11 00:09:24;;;;;;;15.50;9.80;;;;;;;;;;5073591;28;20621;-65
2022/03/11 00:11:50;;;;;;;18.00;9.23;;;;;;;;;;5073198;28;20181;-66
2022/03/11 00:14:16;;;;;;;16.63;9.87;;;;;;;;;;5072986;28;20205;-66
2022/03/11 00:16:42;;;;;;;12.67;9.23;;;;;;;;;;5072898;28;20700;-65
2022/03/11 00:19:08;;;;;;;14.93;8.67;;;;;;;;;;5100248;22;20281;-64
2022/03/11 00:21:34;;;;;;;15.57;10.20;;;;;;;;;;5093146;28;20185;-64
2022/03/11 00:24:00;;;;;;;14.57;9.33;;;;;;;;;;5093068;28;20180;-63
2022/03/11 00:26:26;;;;;;;22.10;13.17;;;;;;;;;;5093197;28;20260;-64
2022/03/11 00:28:52;;;;;;;24.13;15.63;;;;;;;;;;5093094;28;20230;-64
2022/03/11 00:31:18;;;;;;;12.17;8.47;;;;;;;;;;5074872;28;20623;-64
2022/03/11 00:33:44;;;;;;;12.83;8.93;;;;;;;;;;5093398;28;20583;-64
2022/03/11 00:36:10;;;;;;;13.67;8.47;;;;;;;;;;5092909;28;20219;-64
2022/03/11 00:38:36;;;;;;;17.97;9.77;;;;;;;;;;5092871;28;20181;-63
2022/03/11 00:41:02;;;;;;;17.07;9.03;;;;;;;;;;5075023;28;20188;-64
2022/03/11 00:43:28;;;;;;;16.63;9.73;;;;;;;;;;5096548;28;20181;-64
2022/03/11 00:45:55;;;;;;;15.63;9.43;;;;;;;;;;5097483;28;20754;-64
2022/03/11 00:48:21;;;;;;;13.40;7.50;;;;;;;;;;5078877;28;20192;-64
2022/03/11 00:50:48;;;;;;;17.03;8.10;;;;;;;;;;5096807;28;20204;-64
2022/03/11 00:53:14;;;;;;;14.07;9.33;;;;;;;;;;5078601;28;20177;-64
2022/03/11 00:55:40;;;;;;;15.80;8.10;;;;;;;;;;5096986;28;20180;-63
2022/03/11 00:58:06;;;;;;;13.20;8.37;;;;;;;;;;5096687;28;20165;-63
2022/03/11 01:00:32;;;;;;;10.13;7.60;;;;;;;;;;5096542;28;20193;-63
2022/03/11 01:02:58;;;;;;;10.90;8.10;;;;;;;;;;5096542;28;20176;-64
2022/03/11 01:05:25;;;;;;;14.80;8.87;;;;;;;;;;5096722;28;20256;-64
2022/03/11 01:07:51;;;;;;;11.80;8.10;;;;;;;;;;5096769;28;20187;-63
2022/03/11 01:10:17;;;;;;;13.20;8.97;;;;;;;;;;5078209;28;20231;-64
2022/03/11 01:12:43;;;;;;;11.50;8.07;;;;;;;;;;5078420;28;20177;-63
2022/03/11 01:15:09;;;;;;;14.70;8.47;;;;;;;;;;5097161;28;20174;-64
2022/03/11 01:17:35;;;;;;;16.67;10.20;;;;;;;;;;5079664;28;20230;-64
2022/03/11 01:20:01;;;;;;;13.00;8.90;;;;;;;;;;5097915;28;20231;-64
2022/03/11 01:22:27;;;;;;;16.83;11.73;;;;;;;;;;5097095;28;20177;-63
2022/03/11 01:24:53;;;;;;;22.67;14.60;;;;;;;;;;5097045;28;20200;-63
2022/03/11 01:27:19;;;;;;;20.17;12.10;;;;;;;;;;5078153;28;20640;-63
2022/03/11 01:29:45;;;;;;;23.23;13.63;;;;;;;;;;5096143;28;20197;-64
2022/03/11 01:32:11;;;;;;;15.83;9.87;;;;;;;;;;5096186;28;20173;-63
2022/03/11 01:34:37;;;;;;;13.93;8.90;;;;;;;;;;5096043;28;20204;-63
2022/03/11 01:37:04;;;;;;;17.73;8.40;;;;;;;;;;5096392;28;20177;-63
2022/03/11 01:39:30;;;;;;;16.03;8.90;;;;;;;;;;5096341;28;20207;-63
2022/03/11 01:41:56;;;;;;;18.40;8.80;;;;;;;;;;5095834;28;20189;-64
2022/03/11 01:44:23;;;;;;;15.30;8.97;;;;;;;;;;5096518;28;20177;-63
2022/03/11 01:46:49;;;;;;;17.00;10.37;;;;;;;;;;5096016;28;20188;-64
2022/03/11 01:49:15;;;;;;;13.27;9.40;;;;;;;;;;5078114;28;20193;-64
2022/03/11 01:51:42;;;;;;;17.30;11.07;;;;;;;;;;5078277;28;20172;-64
2022/03/11 01:54:08;;;;;;;14.40;10.07;;;;;;;;;;5077904;28;20663;-63
2022/03/11 01:56:35;;;;;;;18.67;12.20;;;;;;;;;;5078043;28;20188;-64
2022/03/11 01:59:01;;;;;;;32.17;18.53;;;;;;;;;;5095959;28;20204;-63
2022/03/11 02:01:27;;;;;;;13.60;8.67;;;;;;;;;;5077794;28;20181;-64
2022/03/11 02:03:53;;;;;;;10.33;6.97;;;;;;;;;;5095699;28;20663;-63
2022/03/11 02:06:20;;;;;;;16.33;7.63;;;;;;;;;;5095497;28;20185;-63
2022/03/11 02:08:46;;;;;;;15.07;8.57;;;;;;;;;;5095958;28;20173;-64
2022/03/11 02:11:12;;;;;;;15.73;9.00;;;;;;;;;;5096419;28;20201;-64
2022/03/11 02:13:43;;;;;;;16.70;8.90;;;;;;;;;;5096408;28;20174;-64
2022/03/11 02:16:10;;;;;;;14.57;9.10;;;;;;;;;;5096079;28;20200;-63
2022/03/11 02:18:36;;;;;;;16.73;9.07;;;;;;;;;;5095829;28;20239;-64
2022/03/11 02:21:02;;;;;;;14.77;7.80;;;;;;;;;;5095256;28;20185;-64
2022/03/11 02:23:29;;;;;;;13.27;8.27;;;;;;;;;;5077507;28;20177;-64
2022/03/11 02:25:55;;;;;;;15.87;9.03;;;;;;;;;;5076690;28;20213;-63
2022/03/11 02:28:21;;;;;;;12.33;7.87;;;;;;;;;;5094593;28;20204;-64
2022/03/11 02:30:47;;;;;;;14.27;8.57;;;;;;;;;;5094449;28;20216;-63
2022/03/11 02:33:13;;;;;;;16.00;9.27;;;;;;;;;;5094625;28;20176;-63
2022/03/11 02:35:39;;;;;;;12.53;8.30;;;;;;;;;;5094434;28;20173;-63
2022/03/11 02:38:05;;;;;;;14.90;8.27;;;;;;;;;;5076351;28;20181;-63
2022/03/11 02:40:32;;;;;;;13.57;8.57;;;;;;;;;;5094662;28;20694;-64
2022/03/11 02:42:58;;;;;;;13.47;8.23;;;;;;;;;;5094339;28;20173;-63
2022/03/11 02:45:24;;;;;;;13.40;7.87;;;;;;;;;;5094298;28;20227;-64
2022/03/11 02:47:50;;;;;;;11.03;7.23;;;;;;;;;;5076016;28;20184;-64
2022/03/11 02:50:16;;;;;;;13.20;8.07;;;;;;;;;;5094066;28;20209;-64
2022/03/11 02:52:42;;;;;;;12.57;7.83;;;;;;;;;;5094413;28;20200;-64
2022/03/11 02:55:08;;;;;;;19.70;8.23;;;;;;;;;;5094432;28;20223;-64
2022/03/11 02:57:34;;;;;;;13.50;7.33;;;;;;;;;;5094102;28;20698;-64
2022/03/11 03:00:00;;;;;;;10.33;7.47;;;;;;;;;;5094036;28;20231;-64
2022/03/11 03:02:26;;;;;;;12.97;7.67;;;;;;;;;;5094615;28;20544;-63
2022/03/11 03:04:52;;;;;;;13.00;7.80;;;;;;;;;;5093405;28;20173;-64
2022/03/11 03:07:18;;;;;;;13.07;8.17;;;;;;;;;;5075751;28;20644;-63
2022/03/11 03:09:44;;;;;;;13.83;7.63;;;;;;;;;;5094052;28;20205;-64
2022/03/11 03:12:10;;;;;;;10.23;7.00;;;;;;;;;;5093905;28;20545;-64
2022/03/11 03:14:37;;;;;;;13.07;7.80;;;;;;;;;;5094118;28;20188;-64
2022/03/11 03:17:03;;;;;;;15.40;8.13;;;;;;;;;;5094075;28;20174;-64
2022/03/11 03:19:29;;;;;;;11.73;7.97;;;;;;;;;;5075383;28;20274;-64
2022/03/11 03:21:55;;;;;;;15.63;8.30;;;;;;;;;;5093766;28;20526;-64
2022/03/11 03:24:21;;;;;;;13.60;8.83;;;;;;;;;;5094046;28;20573;-65
2022/03/11 03:26:47;;;;;;;11.90;8.40;;;;;;;;;;5093819;28;20204;-64
2022/03/11 03:29:13;;;;;;;12.40;8.93;;;;;;;;;;5093531;28;20194;-64
2022/03/11 03:31:39;;;;;;;12.67;9.17;;;;;;;;;;5075459;28;20599;-64
2022/03/11 03:34:05;;;;;;;10.70;8.03;;;;;;;;;;5075476;28;20589;-63
2022/03/11 03:36:31;;;;;;;14.47;8.43;;;;;;;;;;5093605;28;20170;-64
2022/03/11 03:38:57;;;;;;;14.17;8.87;;;;;;;;;;5075453;28;20216;-63
2022/03/11 03:41:23;;;;;;;12.10;8.53;;;;;;;;;;5093445;28;20200;-64
2022/03/11 03:43:49;;;;;;;12.47;7.90;;;;;;;;;;5093710;28;20169;-64
2022/03/11 03:46:15;;;;;;;12.07;8.00;;;;;;;;;;5075314;28;20196;-64
2022/03/11 03:48:41;;;;;;;11.43;7.90;;;;;;;;;;5075275;28;20208;-64
2022/03/11 03:51:07;;;;;;;10.43;8.17;;;;;;;;;;5075115;28;20571;-63
2022/03/11 03:53:33;;;;;;;11.57;7.37;;;;;;;;;;5093322;28;20187;-64
2022/03/11 03:55:59;;;;;;;9.87;7.73;;;;;;;;;;5075228;28;20173;-64
2022/03/11 03:58:25;;;;;;;14.33;8.47;;;;;;;;;;5075189;28;20169;-64
2022/03/11 04:00:51;;;;;;;12.10;8.20;;;;;;;;;;5075033;28;20205;-64
2022/03/11 04:03:17;;;;;;;12.03;8.27;;;;;;;;;;5075078;28;20674;-64
2022/03/11 04:05:43;;;;;;;13.17;8.03;;;;;;;;;;5093182;28;20177;-64
2022/03/11 04:08:09;;;;;;;13.00;8.27;;;;;;;;;;5075102;28;20176;-64
2022/03/11 04:10:36;;;;;;;10.20;8.20;;;;;;;;;;5093543;28;20201;-64
2022/03/11 04:13:02;;;;;;;13.67;8.50;;;;;;;;;;5093119;28;20200;-64
2022/03/11 04:15:28;;;;;;;11.90;7.70;;;;;;;;;;5093086;28;20170;-64
2022/03/11 04:17:54;;;;;;;12.43;8.33;;;;;;;;;;5095809;28;20169;-64
2022/03/11 04:20:20;;;;;;;12.70;8.33;;;;;;;;;;5096825;28;20212;-64
2022/03/11 04:22:46;;;;;;;12.60;7.83;;;;;;;;;;5097635;28;20275;-64
2022/03/11 04:25:13;;;;;;;13.37;8.60;;;;;;;;;;5097086;28;20188;-64
2022/03/11 04:27:39;;;;;;;12.60;8.47;;;;;;;;;;5097080;28;20176;-64
2022/03/11 04:30:07;;;;;;;13.53;8.53;;;;;;;;;;5096761;28;20676;-64
2022/03/11 04:32:33;;;;;;;16.60;8.00;;;;;;;;;;5096945;28;20166;-64
2022/03/11 04:34:59;;;;;;;15.33;7.77;;;;;;;;;;5078595;28;20234;-64
2022/03/11 04:37:25;;;;;;;10.87;8.07;;;;;;;;;;5096864;28;20169;-64
2022/03/11 04:39:51;;;;;;;15.37;8.33;;;;;;;;;;5078472;28;20767;-64
2022/03/11 04:42:17;;;;;;;13.13;8.80;;;;;;;;;;5096810;28;20181;-64
2022/03/11 04:44:43;;;;;;;12.43;7.93;;;;;;;;;;5096641;28;20648;-64
2022/03/11 04:47:09;;;;;;;11.40;7.83;;;;;;;;;;5078335;28;20181;-65
2022/03/11 04:49:35;;;;;;;13.53;9.00;;;;;;;;;;5078878;28;20220;-64
2022/03/11 04:52:01;;;;;;;12.53;8.37;;;;;;;;;;5096523;28;20173;-64
2022/03/11 04:54:27;;;;;;;11.57;7.80;;;;;;;;;;5096717;28;20200;-64
2022/03/11 04:56:53;;;;;;;13.13;9.48;;;;;;;;;;5095307;28;20417;-65
2022/03/11 04:59:19;;;;;;;12.47;9.50;;;;;;;;;;5095682;28;20423;-65
2022/03/11 05:01:45;;;;;;;13.50;9.60;;;;;;;;;;5096372;28;20466;-64
2022/03/11 05:04:11;;;;;;;13.97;8.97;;;;;;;;;;5096742;28;20178;-64
2022/03/11 05:06:37;;;;;;;13.40;8.40;;;;;;;;;;5096527;28;20173;-64
2022/03/11 05:09:03;;;;;;;13.63;9.20;;;;;;;;;;5096214;28;20687;-65
2022/03/11 05:11:29;;;;;;;12.70;8.20;;;;;;;;;;5077913;28;20213;-65
2022/03/11 05:13:55;;;;;;;12.13;7.93;;;;;;;;;;5096164;28;20169;-65
2022/03/11 05:16:21;;;;;;;18.50;9.60;;;;;;;;;;5096459;28;20256;-65
2022/03/11 05:18:47;;;;;;;15.10;10.23;;;;;;;;;;5078338;28;20545;-65
2022/03/11 05:21:13;;;;;;;14.10;8.93;;;;;;;;;;5077949;28;20651;-65
2022/03/11 05:23:39;;;;;;;12.20;9.00;;;;;;;;;;5099277;28;20278;-65
2022/03/11 05:26:07;;;;;;;13.63;9.60;;;;;;;;;;5100539;28;20218;-65
2022/03/11 05:28:33;;;;;;;16.00;9.50;;;;;;;;;;5101823;28;20655;-65
2022/03/11 05:30:59;;;;;;;14.00;9.53;;;;;;;;;;5100424;28;20197;-66
2022/03/11 05:33:25;;;;;;;15.83;9.67;;;;;;;;;;5098033;28;20637;-65
2022/03/11 05:35:51;;;;;;;14.43;9.63;;;;;;;;;;5078733;28;20524;-65
2022/03/11 05:38:19;;;;;;;15.23;9.40;;;;;;;;;;5096674;28;20636;-65
2022/03/11 05:40:45;;;;;;;14.20;9.27;;;;;;;;;;5077569;28;20197;-65
2022/03/11 05:43:11;;;;;;;16.43;10.00;;;;;;;;;;5077578;28;20238;-65
2022/03/11 05:45:39;;;;;;;15.53;10.80;;;;;;;;;;5095680;28;20177;-64
2022/03/11 05:48:05;;;;;;;14.13;10.17;;;;;;;;;;5077374;28;20646;-65
2022/03/11 05:50:31;;;;;;;15.73;10.60;;;;;;;;;;5095311;28;20201;-65
2022/03/11 05:52:57;;;;;;;17.10;10.40;;;;;;;;;;5095388;28;20177;-65
2022/03/11 05:55:23;;;;;;;14.13;10.40;;;;;;;;;;5095493;28;20181;-65
2022/03/11 05:57:49;;;;;;;23.37;10.93;;;;;;;;;;5095328;28;20204;-66
2022/03/11 06:00:15;;;;;;;14.60;9.97;;;;;;;;;;5077182;28;20657;-65
2022/03/11 06:02:41;;;;;;;12.83;9.63;;;;;;;;;;5095657;28;20177;-66
2022/03/11 06:05:10;;;;;;;19.03;10.87;;;;;;;;;;5077044;28;20287;-66
2022/03/11 06:07:36;;;;;;;19.67;10.70;;;;;;;;;;5076994;28;20182;-66
2022/03/11 06:10:02;;;;;;;21.57;10.90;;;;;;;;;;5094973;28;20558;-65
2022/03/11 06:12:28;;;;;;;14.83;9.13;;;;;;;;;;5095231;28;20601;-66
2022/03/11 06:14:54;;;;;;;15.83;9.87;;;;;;;;;;5095030;28;20297;-65
2022/03/11 06:17:20;;;;;;;15.80;11.10;;;;;;;;;;5095036;28;20258;-66
2022/03/11 06:19:46;;;;;;;14.40;10.27;;;;;;;;;;5094706;28;20216;-67
2022/03/11 06:22:11;;;;;;;17.27;10.87;;;;;;;;;;5095150;28;20177;-66
2022/03/11 06:24:37;;;;;;;13.80;9.90;;;;;;;;;;5095265;28;20272;-67
2022/03/11 06:27:03;;;;;;;16.83;11.57;;;;;;;;;;5076624;28;20185;-67
2022/03/11 06:29:29;;;;;;;17.10;11.30;;;;;;;;;;5076491;28;20197;-65
2022/03/11 06:31:55;;;;;;;17.27;10.90;;;;;;;;;;5077062;28;20245;-65
2022/03/11 06:34:22;;;;;;;18.37;10.90;;;;;;;;;;5094721;28;20176;-66
2022/03/11 06:36:47;;;;;;;19.27;12.27;;;;;;;;;;5094947;28;20173;-66
2022/03/11 06:39:14;;;;;;;17.17;10.90;;;;;;;;;;5093849;28;20205;-64
2022/03/11 06:41:40;;;;;;;17.57;10.83;;;;;;;;;;5094280;28;20181;-65
2022/03/11 06:44:06;;;;;;;18.90;13.20;;;;;;;;;;5094463;28;20196;-65
2022/03/11 06:46:32;;;;;;;16.57;12.27;;;;;;;;;;5095007;28;20177;-66
2022/03/11 06:48:58;;;;;;;19.63;12.80;;;;;;;;;;5076107;28;20204;-65
2022/03/11 06:51:24;;;;;;;24.37;14.53;;;;;;;;;;5076244;28;20248;-65
2022/03/11 06:53:50;;;;;;;21.17;13.93;;;;;;;;;;5076199;28;20712;-66
2022/03/11 06:56:16;;;;;;;19.90;13.13;;;;;;;;;;5108338;22;20307;-64
2022/03/11 06:58:42;;;;;;;19.20;12.57;;;;;;;;;;5095445;28;20625;-63
2022/03/11 07:01:08;;;;;;;18.40;11.80;;;;;;;;;;5095453;28;20648;-62
2022/03/11 07:03:34;;;;;;;19.23;13.70;;;;;;;;;;5095857;28;20204;-65
2022/03/11 07:06:00;;;;;;;19.80;12.70;;;;;;;;;;5095206;28;20292;-63
2022/03/11 07:08:28;;;;;;;18.60;13.17;;;;;;;;;;5095809;28;20177;-63
2022/03/11 07:10:54;;;;;;;20.57;12.50;;;;;;;;;;5094896;28;20197;-63
2022/03/11 07:13:20;;;;;;;18.10;13.00;;;;;;;;;;5076697;28;20173;-63
2022/03/11 07:15:46;;;;;;;19.17;13.37;;;;;;;;;;5076741;28;20192;-65
2022/03/11 07:18:12;;;;;;;15.67;12.43;;;;;;;;;;5094929;28;20538;-64
2022/03/11 07:20:38;;;;;;;20.03;12.43;;;;;;;;;;5077089;28;20185;-63
2022/03/11 07:23:05;;;;;;;22.13;13.33;;;;;;;;;;5095448;28;20177;-64
2022/03/11 07:25:31;;;;;;;18.97;12.97;;;;;;;;;;5095100;28;20174;-63
2022/03/11 07:27:57;;;;;;;17.90;12.83;;;;;;;;;;5094937;28;20249;-63
2022/03/11 07:30:23;;;;;;;15.90;12.57;;;;;;;;;;5075728;28;20206;-64
2022/03/11 07:32:50;;;;;;;17.70;13.13;;;;;;;;;;5093797;28;20177;-63
2022/03/11 07:35:16;;;;;;;19.33;12.23;;;;;;;;;;5093391;28;20176;-64
2022/03/11 07:37:42;;;;;;;19.37;13.33;;;;;;;;;;5093564;28;20185;-65
2022/03/11 07:40:11;;;;;;;19.83;11.73;;;;;;;;;;5093417;28;20177;-64
2022/03/11 07:42:42;;;;;;;18.03;13.70;;;;;;;;;;5093394;28;20213;-64
2022/03/11 07:45:08;;;;;;;18.43;13.13;;;;;;;;;;5093528;28;20157;-64
2022/03/11 07:47:34;;;;;;;21.80;13.60;;;;;;;;;;5075146;28;20209;-65
2022/03/11 07:50:00;;;;;;;18.10;13.50;;;;;;;;;;5075512;28;20207;-63
2022/03/11 07:52:26;;;;;;;17.27;13.47;;;;;;;;;;5093579;28;20676;-63
2022/03/11 07:54:52;;;;;;;22.57;12.90;;;;;;;;;;5093270;28;20173;-63
2022/03/11 07:57:18;;;;;;;18.70;13.50;;;;;;;;;;5093065;28;20274;-63
2022/03/11 07:59:44;;;;;;;19.73;13.93;;;;;;;;;;5093346;28;20177;-64
2022/03/11 08:02:11;;;;;;;21.43;13.23;;;;;;;;;;5075141;28;20177;-64
2022/03/11 08:04:37;;;;;;;18.63;14.03;;;;;;;;;;5093421;28;20173;-64
2022/03/11 08:07:06;;;;;;;24.93;14.13;;;;;;;;;;5075038;28;20201;-64
2022/03/11 08:09:33;;;;;;;19.07;13.83;;;;;;;;;;5093100;28;20174;-64
2022/03/11 08:11:59;;;;;;;16.63;12.77;;;;;;;;;;5075009;28;20211;-63
2022/03/11 08:14:25;;;;;;;26.00;13.20;;;;;;;;;;5074938;28;20212;-65
2022/03/11 08:16:51;;;;;;;22.63;14.37;;;;;;;;;;5092962;28;20189;-64
2022/03/11 08:19:17;;;;;;;17.13;12.20;;;;;;;;;;5074904;28;20177;-65
2022/03/11 08:21:43;;;;;;;22.33;12.80;;;;;;;;;;5092961;28;20196;-63
2022/03/11 08:24:09;;;;;;;19.30;13.47;;;;;;;;;;5093227;28;20208;-63
2022/03/11 08:26:35;;;;;;;17.53;13.07;;;;;;;;;;5093061;28;20196;-64
2022/03/11 08:29:01;;;;;;;17.90;13.20;;;;;;;;;;5092922;28;20177;-63
2022/03/11 08:31:27;;;;;;;22.30;14.07;;;;;;;;;;5074752;28;20204;-65
2022/03/11 08:33:53;;;;;;;24.00;14.03;;;;;;;;;;5092885;28;20174;-65
2022/03/11 08:36:19;;;;;;;22.27;14.40;;;;;;;;;;5093002;28;20212;-64
2022/03/11 08:38:45;;;;;;;19.63;13.83;;;;;;;;;;5074666;28;20182;-63
2022/03/11 08:41:11;;;;;;;19.13;13.70;;;;;;;;;;5092940;28;20252;-63
2022/03/11 08:43:38;;;;;;;20.93;13.27;;;;;;;;;;5074745;28;20181;-65
2022/03/11 08:46:11;;;;;;;17.50;12.73;;;;;;;;;;5092765;28;20611;-64
2022/03/11 08:48:37;;;;;;;16.63;12.77;;;;;;;;;;5093085;28;20181;-64
2022/03/11 08:51:03;;;;;;;20.07;13.70;;;;;;;;;;5074593;28;20288;-64
2022/03/11 08:53:29;;;;;;;16.20;12.70;;;;;;;;;;5074704;28;20272;-65
2022/03/11 08:55:55;;;;;;;17.83;12.87;;;;;;;;;;5092821;28;20854;-65
2022/03/11 08:58:21;;;;;;;18.80;12.37;;;;;;;;;;5093299;28;20165;-65
2022/03/11 09:00:47;;;;;;;18.27;12.90;;;;;;;;;;5074649;28;20189;-65
2022/03/11 09:03:13;;;;;;;16.93;12.30;;;;;;;;;;5093813;28;20173;-64
2022/03/11 09:05:39;;;;;;;22.77;13.40;;;;;;;;;;5096496;28;20196;-63
2022/03/11 09:08:07;;;;;;;19.10;12.47;;;;;;;;;;5078107;28;20193;-65
2022/03/11 09:10:33;;;;;;;19.93;13.60;;;;;;;;;;5078016;28;20205;-65
2022/03/11 09:12:59;;;;;;;21.33;12.83;;;;;;;;;;5096195;28;20169;-65
2022/03/11 09:15:26;;;;;;;19.07;13.53;;;;;;;;;;5077864;28;20188;-64
2022/03/11 09:17:52;;;;;;;18.17;12.93;;;;;;;;;;5077938;28;20193;-64
2022/03/11 09:20:18;;;;;;;20.43;13.70;;;;;;;;;;5077898;28;20271;-64
2022/03/11 09:22:44;;;;;;;17.30;12.30;;;;;;;;;;5078007;28;20207;-65
2022/03/11 09:25:10;;;;;;;19.73;13.13;;;;;;;;;;5096581;28;20188;-65
2022/03/11 09:27:37;;;;;;;17.27;12.67;;;;;;;;;;5077827;28;20236;-65
2022/03/11 09:30:05;;;;;;;15.53;11.83;;;;;;;;;;5095843;28;20246;-64
2022/03/11 09:32:31;;;;;;;16.67;12.83;;;;;;;;;;5095837;28;20177;-65
2022/03/11 09:34:58;;;;;;;18.80;12.73;;;;;;;;;;5077669;28;20203;-62
2022/03/11 09:37:24;;;;;;;18.10;13.37;;;;;;;;;;5095908;28;20193;-65
2022/03/11 09:39:50;;;;;;;18.80;13.23;;;;;;;;;;5095656;28;20614;-64
2022/03/11 09:42:16;;;;;;;17.47;13.17;;;;;;;;;;5095657;28;20196;-65
2022/03/11 09:44:48;;;;;;;19.60;13.50;;;;;;;;;;5077481;28;20189;-65
2022/03/11 09:47:15;;;;;;;19.07;13.37;;;;;;;;;;5095632;28;20204;-64
2022/03/11 09:49:41;;;;;;;17.10;12.83;;;;;;;;;;5095344;28;20584;-64
2022/03/11 09:52:07;;;;;;;16.43;12.70;;;;;;;;;;5095577;28;20180;-63
2022/03/11 09:54:34;;;;;;;19.10;13.60;;;;;;;;;;5077257;28;20239;-63
2022/03/11 09:57:00;;;;;;;17.20;13.20;;;;;;;;;;5095194;28;20217;-65
2022/03/11 09:59:27;;;;;;;21.57;14.43;;;;;;;;;;5095322;28;20173;-65
2022/03/11 10:01:53;;;;;;;18.27;12.07;;;;;;;;;;5095118;28;20181;-65
2022/03/11 10:04:19;;;;;;;18.80;12.93;;;;;;;;;;5076986;28;20177;-65
2022/03/11 10:06:46;;;;;;;18.60;13.87;;;;;;;;;;5095016;28;20216;-65
2022/03/11 10:09:18;;;;;;;18.37;14.13;;;;;;;;;;5095100;28;20181;-65
2022/03/11 10:11:52;;;;;;;19.00;13.70;;;;;;;;;;5094951;28;20208;-64
2022/03/11 10:14:27;;;;;;;19.30;13.53;;;;;;;;;;5076796;28;20229;-64
2022/03/11 10:16:53;;;;;;;18.53;13.17;;;;;;;;;;5095411;28;20193;-64
2022/03/11 10:19:20;;;;;;;17.43;13.20;;;;;;;;;;5095131;28;20185;-64
2022/03/11 10:21:47;;;;;;;20.33;14.13;;;;;;;;;;5094904;28;20259;-63
2022/03/11 10:24:20;;;;;;;16.00;12.03;;;;;;;;;;5094858;28;20646;-64
2022/03/11 10:26:47;;;;;;;17.93;13.93;;;;;;;;;;5094514;28;20200;-64
2022/03/11 10:29:14;;;;;;;20.77;14.37;;;;;;;;;;5094918;28;20185;-64
2022/03/11 10:31:43;;;;;;;18.20;13.50;;;;;;;;;;5076428;28;20205;-65
2022/03/11 10:34:25;;;;;;;19.07;14.10;;;;;;;;;;5076546;28;20177;-64
2022/03/11 10:36:52;;;;;;;21.53;13.67;;;;;;;;;;5094656;28;20656;-64
2022/03/11 10:39:18;;;;;;;18.10;12.30;;;;;;;;;;5094739;28;20165;-64
2022/03/11 10:41:46;;;;;;;19.83;13.40;;;;;;;;;;5094514;28;20230;-64
2022/03/11 10:44:13;;;;;;;19.50;14.37;;;;;;;;;;5076220;28;20192;-63
2022/03/11 10:46:40;;;;;;;18.43;12.83;;;;;;;;;;5094301;28;20197;-64
2022/03/11 10:49:06;;;;;;;21.33;13.27;;;;;;;;;;5094383;28;20230;-63
2022/03/11 10:51:33;;;;;;;18.53;13.43;;;;;;;;;;5094262;28;20594;-63
2022/03/11 10:54:00;;;;;;;17.67;11.43;;;;;;;;;;5094240;28;20173;-63
2022/03/11 10:56:33;;;;;;;18.43;13.80;;;;;;;;;;5094004;28;20671;-63
2022/03/11 10:58:59;;;;;;;18.63;13.57;;;;;;;;;;5076064;28;20633;-64
2022/03/11 11:01:54;;;;;;;17.97;13.20;;;;;;;;;;5094095;28;20187;-64
2022/03/11 11:04:20;;;;;;;15.83;11.67;;;;;;;;;;5055595;28;20200;-64
2022/03/11 11:06:47;;;;;;;17.50;12.07;;;;;;;;;;5076064;28;20197;-63
2022/03/11 11:09:14;;;;;;;19.10;12.40;;;;;;;;;;5094076;28;20177;-64
2022/03/11 11:11:42;;;;;;;19.00;14.37;;;;;;;;;;5093910;28;20205;-63
2022/03/11 11:14:09;;;;;;;20.17;13.40;;;;;;;;;;5093874;28;20619;-63
2022/03/11 11:16:40;;;;;;;16.97;13.13;;;;;;;;;;5093791;28;20193;-63
2022/03/11 11:19:09;;;;;;;15.20;9.67;;;;;;;;;;5075765;28;20674;-63
2022/03/11 11:21:36;;;;;;;18.47;12.47;;;;;;;;;;5093992;28;20290;-63
2022/03/11 11:24:02;;;;;;;17.27;12.33;;;;;;;;;;5075683;28;20181;-63
2022/03/11 11:26:28;;;;;;;;;;;;;;;;;;5075384;28;20028;-63
2022/03/11 11:28:54;;;;;;;;;;;;;;;;;;5094310;28;19911;-63
2022/03/11 11:31:20;;;;;;;;;;;;;;;;;;5093953;28;19952;-63
2022/03/11 11:33:46;;;;;;;;;;;;;;;;;;5094252;28;19998;-63
2022/03/11 11:36:12;;;;;;;;;;;;;;;;;;5094175;28;20366;-62
2022/03/11 11:38:38;;;;;;;;;;;;;;;;;;5093981;28;19904;-62
2022/03/11 11:41:04;;;;;;;;;;;;;;;;;;5094074;28;20390;-64
2022/03/11 11:43:30;;;;;;;;;;;;;;;;;;5094120;28;19904;-64
2022/03/11 11:45:56;;;;;;;;;;;;;;;;;;5094152;28;19908;-62
2022/03/11 11:48:22;;;;;;;;;;;;;;;;;;5075773;28;20303;-63
2022/03/11 11:50:48;;;;;;;;;;;;;;;;;;5093772;28;20048;-63
2022/03/11 11:53:14;;;;;;;;;;;;;;;;;;5075929;28;20275;-63
2022/03/11 11:55:39;;;;;;;;;;;;;;;;;;5093960;28;19904;-63
2022/03/11 11:58:05;;;;;;;;;;;;;;;;;;5075574;28;20007;-64
2022/03/11 12:00:31;;;;;;;;;;;;;;;;;;5075658;28;19904;-63
2022/03/11 12:02:58;;;;;;;;;;;;;;;;;;5093705;28;20019;-63
2022/03/11 12:05:24;;;;;;;;;;;;;;;;;;5093784;28;19910;-63
2022/03/11 12:07:50;;;;;;;;;;;;;;;;;;5093549;28;19991;-63
2022/03/11 12:10:16;;;;;;;;;;;;;;;;;;5093901;28;19908;-64
2022/03/11 12:12:44;;;;;;;;;;;;;;;;;;5093564;28;19904;-64
2022/03/11 12:15:11;;;;;;;;;;;;;;;;;;5076501;28;20317;-64
2022/03/11 12:17:37;;;;;;;;;;;;;;;;;;5094012;28;19950;-64
2022/03/11 12:20:03;;;;;;;;;;;;;;;;;;5093539;28;19904;-64
2022/03/11 12:22:29;;;;;;;;;;;;;;;;;;5093590;28;19911;-65
2022/03/11 12:24:55;;;;;;;;;;;;;;;;;;5075733;28;19908;-65
2022/03/11 12:27:21;;;;;;;;;;;;;;;;;;5093615;28;20298;-64
2022/03/11 12:29:47;;;;;;;;;;;;;;;;;;5093578;28;19965;-65
2022/03/11 12:32:13;;;;;;;;;;;;;;;;;;5093409;28;19990;-64
2022/03/11 12:34:41;;;;;;;;;;;;;;;;;;5093419;28;19930;-65
2022/03/11 12:37:07;;;;;;;;;;;;;;;;;;5093268;28;19941;-62
2022/03/11 12:39:34;;;;;;;;;;;;;;;;;;5096818;28;20295;-63
2022/03/11 12:42:00;;;;;;;;;;;;;;;;;;5097454;28;20304;-63
2022/03/11 12:44:27;;;;;;;;;;;;;;;;;;5097403;28;19946;-63
2022/03/11 12:46:53;;;;;;;;;;;;;;;;;;5097023;28;20344;-63
2022/03/11 12:49:19;;;;;;;;;;;;;;;;;;5097256;28;20424;-63
2022/03/11 12:51:45;;;;;;;;;;;;;;;;;;5078684;28;19957;-63
2022/03/11 12:54:11;;;;;;;;;;;;;;;;;;5096919;28;20279;-63
2022/03/11 12:56:37;;;;;;;;;;;;;;;;;;5110137;22;20056;-65
2022/03/11 12:59:03;;;;;;;;;;;;;;;;;;5097002;28;19919;-65
2022/03/11 13:01:28;;;;;;;;;;;;;;;;;;5078895;28;20363;-65
2022/03/11 13:03:54;;;;;;;;;;;;;;;;;;5096830;28;19904;-65
2022/03/11 13:06:20;;;;;;;;;;;;;;;;;;5096620;28;19904;-65
2022/03/11 13:08:47;;;;;;;;;;;;;;;;;;5096840;28;19908;-65
2022/03/11 13:11:14;;;;;;;;;;;;;;;;;;5096877;28;19908;-65
2022/03/11 13:13:39;;;;;;;;;;;;;;;;;;5078548;28;20356;-65
2022/03/11 13:16:05;;;;;;;;;;;;;;;;;;5096598;28;19910;-65
2022/03/11 13:18:31;;;;;;;;;;;;;;;;;;5096439;28;20279;-65
2022/03/11 13:20:57;;;;;;;;;;;;;;;;;;5096440;28;19908;-65
2022/03/11 13:23:23;;;;;;;;;;;;;;;;;;5096446;28;19904;-65
2022/03/11 13:25:49;;;;;;;;;;;;;;;;;;5096276;28;20011;-65
2022/03/11 13:28:15;;;;;;;;;;;;;;;;;;5096326;28;20104;-65
2022/03/11 13:30:41;;;;;;;;;;;;;;;;;;5077921;28;19956;-65
2022/03/11 13:33:07;;;;;;;;;;;;;;;;;;5078052;28;19915;-65
2022/03/11 13:35:34;;;;;;;;;;;;;;;;;;5078382;28;19926;-65
2022/03/11 13:38:00;;;;;;;;;;;;;;;;;;5096048;28;19994;-65
2022/03/11 13:40:26;;;;;;;;;;;;;;;;;;5096054;28;20404;-65
2022/03/11 13:42:52;;;;;;;;;;;;;;;;;;5095955;28;19995;-65
2022/03/11 13:45:17;;;;;;;;;;;;;;;;;;5095963;28;19911;-64
2022/03/11 13:47:45;;;;;;;;;;;;;;;;;;5095938;28;19904;-65
2022/03/11 13:50:11;;;;;;;;;;;;;;;;;;5095385;28;19995;-65
2022/03/11 13:52:36;;;;;;;;;;;;;;;;;;5077784;28;20335;-65
2022/03/11 13:55:02;;;;;;;;;;;;;;;;;;5077591;28;19904;-65
2022/03/11 13:57:28;;;;;;;;;;;;;;;;;;5095526;28;19912;-65
2022/03/11 13:59:54;;;;;;;;;;;;;;;;;;5095907;28;20317;-65
2022/03/11 14:02:28;;;;;;;17.00;12.90;;;;;;;;;;5075941;28;20406;-65
2022/03/11 14:05:12;;;;;;;20.75;14.23;;;;;;;;;;5093942;28;20393;-65
2022/03/11 14:07:38;;;;;;;16.80;13.15;;;;;;;;;;5075571;28;20464;-65
2022/03/11 14:10:08;;;;;;;17.35;13.90;;;;;;;;;;5075611;28;20446;-66
2022/03/11 14:12:34;;;;;;;15.95;13.05;;;;;;;;;;5075625;28;20829;-65
2022/03/11 14:15:07;;;;;;;19.13;14.00;;;;;;;;;;5093934;28;20449;-65
2022/03/11 14:17:33;;;;;;;18.00;13.43;;;;;;;;;;5093610;28;20848;-65
2022/03/11 14:19:59;;;;;;;27.90;17.50;;;;;;;;;;5075507;28;20382;-65
2022/03/11 14:22:25;;;;;;;22.17;14.82;;;;;;;;;;5093628;28;20378;-66
2022/03/11 14:24:51;;;;;;;17.23;13.25;;;;;;;;;;5093657;28;20382;-65
2022/03/11 14:27:18;;;;;;;16.38;14.13;;;;;;;;;;5075583;28;20451;-66
2022/03/11 14:29:45;;;;;;;19.23;14.05;;;;;;;;;;5075311;28;20374;-66
2022/03/11 14:32:11;;;;;;;17.02;14.00;;;;;;;;;;5093499;28;20378;-65
2022/03/11 14:34:38;;;;;;;17.85;13.38;;;;;;;;;;5093353;28;20791;-65
2022/03/11 14:37:04;;;;;;;16.83;13.80;;;;;;;;;;5093236;28;20377;-65
2022/03/11 14:39:30;;;;;;;16.52;13.98;;;;;;;;;;5075087;28;20754;-65
2022/03/11 14:41:57;;;;;;;19.60;13.88;;;;;;;;;;5093177;28;20416;-66